Punta Gialla — IWUC — position and weather

sailwx.info

Track history (hours):
 
Tides and Currents Weather Stations Pressure Air Temp Water Temp Dewpoint Dewpoint Depression Visibility Wind Speed Wind Dir Waves Ship Positions

Punta Gialla

Last reported at 2017-Jul-23 00:30 UTC. Time now 2017-Jul-23 00:53 UTC.
Position N 44°24' E 008°54'.

Length 52 m; draft 2.3 m.

Type: Ship (hazmat cat D). MMSI: 247077500.

Date/timePositionNaut miles runAvg speedWind from/ knotsBaromVisibWave heightAir tempDewpointWater temp
2017-Jul-23 00:30N 44°24' E 008°54'0 0.0
2017-Jul-23 00:00N 44°24' E 008°54'0 0.0
2017-Jul-22 23:30N 44°24' E 008°54'0 0.0
2017-Jul-22 23:00N 44°24' E 008°54'0 0.0
2017-Jul-22 22:30N 44°24' E 008°54'0 0.0
2017-Jul-22 22:00N 44°24' E 008°54'0 0.0
2017-Jul-22 21:30N 44°24' E 008°54'0 0.0
2017-Jul-22 21:00N 44°24' E 008°54'0 0.0
2017-Jul-22 20:30N 44°24' E 008°54'0 0.0
2017-Jul-22 20:00N 44°24' E 008°54'0 0.0
2017-Jul-22 19:30N 44°24' E 008°54'0 0.0
2017-Jul-22 19:00N 44°24' E 008°54'0 0.0
2017-Jul-22 18:30N 44°24' E 008°54'0 0.0
2017-Jul-22 18:00N 44°24' E 008°54'0 0.0
2017-Jul-22 17:30N 44°24' E 008°54'0 0.0
2017-Jul-22 17:00N 44°24' E 008°54'0 0.0
2017-Jul-22 16:30N 44°24' E 008°54'0 0.0
2017-Jul-22 16:00N 44°24' E 008°54'0 0.0
2017-Jul-22 15:30N 44°24' E 008°54'0 0.0
2017-Jul-22 15:00N 44°24' E 008°54'0 0.0
2017-Jul-22 14:00N 44°24' E 008°54'1 1.1
2017-Jul-22 13:30N 44°24' E 008°55'1 1.0
2017-Jul-22 13:00N 44°24' E 008°55'0 0.0
2017-Jul-22 12:30N 44°24' E 008°55'0 0.0
2017-Jul-22 12:00N 44°24' E 008°55'0 0.0
2017-Jul-22 11:30N 44°24' E 008°55'0 0.0
2017-Jul-22 11:00N 44°24' E 008°55'0 0.5
2017-Jul-22 10:30N 44°24' E 008°55'0 1.0
2017-Jul-22 10:00N 44°24' E 008°54'0 0.0
2017-Jul-22 09:30N 44°24' E 008°54'0 0.0
2017-Jul-22 09:00N 44°24' E 008°54'0 0.2
2017-Jul-22 08:30N 44°24' E 008°54'0 0.0
2017-Jul-22 08:00N 44°24' E 008°54'0 0.0
2017-Jul-22 07:30N 44°24' E 008°54'0 0.0
2017-Jul-22 07:00N 44°24' E 008°54'0 0.0
2017-Jul-22 06:31N 44°24' E 008°54'0 0.0
2017-Jul-22 06:00N 44°24' E 008°54'0 0.0
2017-Jul-22 05:30N 44°24' E 008°54'0 0.0
2017-Jul-22 05:00N 44°24' E 008°54'0 0.0
2017-Jul-22 04:30N 44°24' E 008°54'0 0.0
2017-Jul-22 04:00N 44°24' E 008°54'0 0.0
2017-Jul-22 03:30N 44°24' E 008°54'0 0.0
2017-Jul-22 03:00N 44°24' E 008°54'0 0.0
2017-Jul-22 02:30N 44°24' E 008°54'0 0.0
2017-Jul-22 02:00N 44°24' E 008°54'0 0.0
2017-Jul-22 01:30N 44°24' E 008°54'0 0.0
2017-Jul-22 01:00N 44°24' E 008°54'0 0.0
2017-Jul-22 00:30N 44°24' E 008°54'0 0.0
2017-Jul-22 00:00N 44°24' E 008°54'0 0.0
2017-Jul-21 23:30N 44°24' E 008°54'0 0.0
2017-Jul-21 23:00N 44°24' E 008°54'0 0.0
2017-Jul-21 22:30N 44°24' E 008°54'0 0.0
2017-Jul-21 22:00N 44°24' E 008°54'0 0.0
2017-Jul-21 21:30N 44°24' E 008°54'1 2.0
2017-Jul-21 21:00N 44°24' E 008°53'3 5.2
2017-Jul-21 20:30N 44°23' E 008°50'2 3.9
2017-Jul-21 20:01N 44°25' E 008°50'0 0.3
2017-Jul-21 19:31N 44°25' E 008°50'0 0.1
2017-Jul-21 19:00N 44°25' E 008°50'0 0.0
2017-Jul-21 18:30N 44°25' E 008°50'0 0.0
2017-Jul-21 18:00N 44°25' E 008°50'0 0.0
2017-Jul-21 17:30N 44°25' E 008°50'0 0.0
2017-Jul-21 17:00N 44°25' E 008°50'0 0.0
2017-Jul-21 16:30N 44°25' E 008°50'2 3.8
2017-Jul-21 16:00N 44°24' E 008°48'3 5.8
2017-Jul-21 15:30N 44°24' E 008°53'2 3.8
2017-Jul-21 15:00N 44°24' E 008°55'0 0.2
2017-Jul-21 14:30N 44°24' E 008°55'0 0.0
2017-Jul-21 14:00N 44°24' E 008°55'0 0.0
2017-Jul-21 13:30N 44°24' E 008°55'0 0.0
2017-Jul-21 13:01N 44°24' E 008°55'0 0.1
2017-Jul-21 12:31N 44°24' E 008°55'0 0.9
2017-Jul-21 12:01N 44°24' E 008°54'0 0.0
2017-Jul-21 11:30N 44°24' E 008°54'0 0.0
2017-Jul-21 11:00N 44°24' E 008°54'0 0.0
2017-Jul-21 10:30N 44°24' E 008°54'0 0.0
2017-Jul-21 10:00N 44°24' E 008°54'0 0.0
2017-Jul-21 09:30N 44°24' E 008°54'0 0.0
2017-Jul-21 09:00N 44°24' E 008°54'0 0.3
2017-Jul-21 08:30N 44°24' E 008°54'0 0.0
2017-Jul-21 08:00N 44°24' E 008°54'0 0.0
2017-Jul-21 07:30N 44°24' E 008°54'0 0.0
2017-Jul-21 07:00N 44°24' E 008°54'0 0.0
2017-Jul-21 06:30N 44°24' E 008°54'0 0.0
2017-Jul-21 06:00N 44°24' E 008°54'0 0.0
2017-Jul-21 05:30N 44°24' E 008°54'0 0.0
2017-Jul-21 05:00N 44°24' E 008°54'0 0.0
2017-Jul-21 04:30N 44°24' E 008°54'0 0.0
2017-Jul-21 04:00N 44°24' E 008°54'0 0.0
2017-Jul-21 03:30N 44°24' E 008°54'0 0.0
2017-Jul-21 03:00N 44°24' E 008°54'0 0.0
2017-Jul-21 02:30N 44°24' E 008°54'0 0.0
2017-Jul-21 02:00N 44°24' E 008°54'0 0.0
2017-Jul-21 01:30N 44°24' E 008°54'0 0.0
2017-Jul-21 01:00N 44°24' E 008°54'0 0.0
2017-Jul-21 00:30N 44°24' E 008°54'0 0.0
2017-Jul-21 00:00N 44°24' E 008°54'0 0.0
2017-Jul-20 23:30N 44°24' E 008°54'0 0.0
2017-Jul-20 23:00N 44°24' E 008°54'0 0.0
2017-Jul-20 22:30N 44°24' E 008°54'0 0.0
2017-Jul-20 22:00N 44°24' E 008°54'0 0.0
2017-Jul-20 21:30N 44°24' E 008°54'0 0.0
2017-Jul-20 21:00N 44°24' E 008°54'0 0.0
2017-Jul-20 20:30N 44°24' E 008°54'0 0.0
2017-Jul-20 20:00N 44°24' E 008°54'0 0.0
2017-Jul-20 19:30N 44°24' E 008°54'0 0.0
2017-Jul-20 19:00N 44°24' E 008°54'0 0.0
2017-Jul-20 18:30N 44°24' E 008°54'0 0.0
2017-Jul-20 18:00N 44°24' E 008°54'0 0.0
2017-Jul-20 17:30N 44°24' E 008°54'0 0.0
2017-Jul-20 17:00N 44°24' E 008°54'0 0.0
2017-Jul-20 16:30N 44°24' E 008°54'0 0.0
2017-Jul-20 16:00N 44°24' E 008°54'0 0.0
2017-Jul-20 15:30N 44°24' E 008°54'0 0.4
2017-Jul-20 15:00N 44°24' E 008°54'0 0.2
2017-Jul-20 14:00N 44°24' E 008°54'0 0.0
2017-Jul-20 13:30N 44°24' E 008°54'0 0.0
2017-Jul-20 13:00N 44°24' E 008°54'0 0.0
2017-Jul-20 12:30N 44°24' E 008°54'0 0.8
2017-Jul-20 12:00N 44°24' E 008°54'0 0.0
2017-Jul-20 11:30N 44°24' E 008°54'0 0.0
2017-Jul-20 11:00N 44°24' E 008°54'0 0.0
2017-Jul-20 10:30N 44°24' E 008°54'1 1.2
2017-Jul-20 10:01N 44°24' E 008°55'0 0.9
2017-Jul-20 09:30N 44°24' E 008°55'0 0.0
2017-Jul-20 09:00N 44°24' E 008°55'0 0.0
2017-Jul-20 08:30N 44°24' E 008°55'0 0.0
2017-Jul-20 08:00N 44°24' E 008°55'0 0.0
2017-Jul-20 07:30N 44°24' E 008°55'0 0.0
2017-Jul-20 07:00N 44°24' E 008°55'1 1.0
2017-Jul-20 06:30N 44°24' E 008°55'0 0.0
2017-Jul-20 06:00N 44°24' E 008°55'0 0.0
2017-Jul-20 05:30N 44°24' E 008°55'0 0.0
2017-Jul-20 05:00N 44°24' E 008°55'0 0.0
2017-Jul-20 04:30N 44°24' E 008°55'0 0.0
2017-Jul-20 04:00N 44°24' E 008°55'0 0.0
2017-Jul-20 03:30N 44°24' E 008°55'0 0.0
2017-Jul-20 03:00N 44°24' E 008°55'0 0.0
2017-Jul-20 02:30N 44°24' E 008°55'0 0.0
2017-Jul-20 02:00N 44°24' E 008°55'0 0.0
2017-Jul-20 01:30N 44°24' E 008°55'0 0.0
2017-Jul-20 01:00N 44°24' E 008°55'0 0.0
2017-Jul-20 00:30N 44°24' E 008°55'0 0.0
2017-Jul-20 00:00N 44°24' E 008°55'0 0.0
2017-Jul-19 23:30N 44°24' E 008°55'0 0.0
2017-Jul-19 23:00N 44°24' E 008°55'0 0.0
2017-Jul-19 22:30N 44°24' E 008°55'0 0.0
2017-Jul-19 22:00N 44°24' E 008°55'0 0.0
2017-Jul-19 21:30N 44°24' E 008°55'0 0.0
2017-Jul-19 21:00N 44°24' E 008°55'0 0.0
2017-Jul-19 20:30N 44°24' E 008°55'0 0.0
2017-Jul-19 20:00N 44°24' E 008°55'0 0.0
2017-Jul-19 19:30N 44°24' E 008°55'0 0.0
2017-Jul-19 19:00N 44°24' E 008°55'0 0.0
2017-Jul-19 18:30N 44°24' E 008°55'0 0.0
2017-Jul-19 18:00N 44°24' E 008°55'0 0.0
2017-Jul-19 17:30N 44°24' E 008°55'0 0.0
2017-Jul-19 17:00N 44°24' E 008°55'0 0.0
2017-Jul-19 16:30N 44°24' E 008°55'0 0.0
2017-Jul-19 16:00N 44°24' E 008°55'0 0.0
2017-Jul-19 15:30N 44°24' E 008°55'0 0.0
2017-Jul-19 15:00N 44°24' E 008°55'0 0.1
2017-Jul-19 14:30N 44°24' E 008°55'0 1.0
2017-Jul-19 14:00N 44°24' E 008°54'0 0.0
2017-Jul-19 13:30N 44°24' E 008°54'0 0.0
2017-Jul-19 13:00N 44°24' E 008°54'0 0.0
2017-Jul-19 12:30N 44°24' E 008°54'0 0.0
2017-Jul-19 12:00N 44°24' E 008°54'0 0.0
2017-Jul-19 11:30N 44°24' E 008°54'1 1.4
2017-Jul-19 11:00N 44°24' E 008°55'0 0.0
2017-Jul-19 10:30N 44°24' E 008°55'0 0.0
2017-Jul-19 10:00N 44°24' E 008°55'0 0.0
2017-Jul-19 09:30N 44°24' E 008°55'0 0.0
2017-Jul-19 09:00N 44°24' E 008°55'0 0.0
2017-Jul-19 08:30N 44°24' E 008°55'0 0.6
2017-Jul-19 08:00N 44°24' E 008°55'0 0.0
2017-Jul-19 07:30N 44°24' E 008°55'0 0.0
2017-Jul-19 07:00N 44°24' E 008°55'0 0.0
2017-Jul-19 06:30N 44°24' E 008°55'0 0.0
2017-Jul-19 06:00N 44°24' E 008°55'0 0.0
2017-Jul-19 05:30N 44°24' E 008°55'0 0.0
2017-Jul-19 05:00N 44°24' E 008°55'0 0.0
2017-Jul-19 04:30N 44°24' E 008°55'0 0.0
2017-Jul-19 04:00N 44°24' E 008°55'0 0.0
2017-Jul-19 03:30N 44°24' E 008°55'0 0.0
2017-Jul-19 03:00N 44°24' E 008°55'0 0.0
2017-Jul-19 02:30N 44°24' E 008°55'0 0.0
2017-Jul-19 02:00N 44°24' E 008°55'0 0.0
2017-Jul-19 01:30N 44°24' E 008°55'0 0.0
2017-Jul-19 01:00N 44°24' E 008°55'0 0.0
2017-Jul-19 00:30N 44°24' E 008°55'0 0.0
2017-Jul-19 00:00N 44°24' E 008°55'0 0.0
2017-Jul-18 23:30N 44°24' E 008°55'0 0.0
2017-Jul-18 23:00N 44°24' E 008°55'0 0.0
2017-Jul-18 22:30N 44°24' E 008°55'0 0.0
2017-Jul-18 22:00N 44°24' E 008°55'0 0.0
2017-Jul-18 21:30N 44°24' E 008°55'0 0.0
2017-Jul-18 21:00N 44°24' E 008°55'0 0.0
2017-Jul-18 20:30N 44°24' E 008°55'0 0.0
2017-Jul-18 20:00N 44°24' E 008°55'0 0.0
2017-Jul-18 19:30N 44°24' E 008°55'0 0.0
2017-Jul-18 19:00N 44°24' E 008°55'0 0.0
2017-Jul-18 18:30N 44°24' E 008°55'0 0.0
2017-Jul-18 18:00N 44°24' E 008°55'0 0.0
2017-Jul-18 17:30N 44°24' E 008°55'1 1.2
2017-Jul-18 17:00N 44°25' E 008°55'0 0.0
2017-Jul-18 16:30N 44°25' E 008°55'0 0.0
2017-Jul-18 16:00N 44°25' E 008°55'0 0.0
2017-Jul-18 15:30N 44°25' E 008°55'1 1.4
2017-Jul-18 15:00N 44°24' E 008°55'1 0.5
2017-Jul-18 14:00N 44°24' E 008°54'0 0.0
2017-Jul-18 13:30N 44°24' E 008°54'0 0.0
2017-Jul-18 13:00N 44°24' E 008°54'1 1.0
2017-Jul-18 12:30N 44°25' E 008°55'0 0.0
2017-Jul-18 12:00N 44°25' E 008°55'0 0.0
2017-Jul-18 11:30N 44°25' E 008°55'0 0.0
2017-Jul-18 11:00N 44°25' E 008°55'0 0.0
2017-Jul-18 10:30N 44°25' E 008°55'0 0.0
2017-Jul-18 10:00N 44°25' E 008°55'0 0.9
2017-Jul-18 09:30N 44°24' E 008°55'1 1.0
2017-Jul-18 09:00N 44°24' E 008°54'0 0.0
2017-Jul-18 08:30N 44°24' E 008°54'0 0.0
2017-Jul-18 08:00N 44°24' E 008°54'0 0.0
2017-Jul-18 07:30N 44°24' E 008°54'0 0.0
2017-Jul-18 07:00N 44°24' E 008°54'0 0.0
2017-Jul-18 06:30N 44°24' E 008°54'0 0.0
2017-Jul-18 06:00N 44°24' E 008°54'0 0.0
2017-Jul-18 05:30N 44°24' E 008°54'0 0.0
2017-Jul-18 05:00N 44°24' E 008°54'0 0.0
2017-Jul-18 04:30N 44°24' E 008°54'0 0.0
2017-Jul-18 04:00N 44°24' E 008°54'0 0.0
2017-Jul-18 03:30N 44°24' E 008°54'0 0.0
2017-Jul-18 03:00N 44°24' E 008°54'0 0.0
2017-Jul-18 02:30N 44°24' E 008°54'0 0.0
2017-Jul-18 02:00N 44°24' E 008°54'0 0.0
2017-Jul-18 01:30N 44°24' E 008°54'0 0.0
2017-Jul-18 01:00N 44°24' E 008°54'0 0.0
2017-Jul-18 00:30N 44°24' E 008°54'0 0.0
2017-Jul-18 00:00N 44°24' E 008°54'0 0.0
2017-Jul-17 23:30N 44°24' E 008°54'4 7.1
2017-Jul-17 23:00N 44°22' E 008°58'5 9.1
2017-Jul-17 22:30N 44°18' E 009°01'5 9.1
2017-Jul-17 22:00N 44°14' E 009°05'4 8.6
2017-Jul-17 21:30N 44°11' E 009°09'4 8.8
2017-Jul-17 21:00N 44°09' E 009°15'4 8.7
2017-Jul-17 20:30N 44°07' E 009°20'4 8.6
2017-Jul-17 20:00N 44°05' E 009°25'4 8.5
2017-Jul-17 19:30N 44°04' E 009°31'4 8.3
2017-Jul-17 19:00N 44°02' E 009°36'4 8.1
2017-Jul-17 18:30N 44°00' E 009°41'4 7.9
2017-Jul-17 18:00N 43°60' E 009°47'4 7.7
2017-Jul-17 17:30N 44°01' E 009°52'4 8.8
2017-Jul-17 17:00N 44°05' E 009°51'2 3.5
2017-Jul-17 16:30N 44°06' E 009°50'0 0.0
2017-Jul-17 16:00N 44°06' E 009°50'0 0.0
2017-Jul-17 15:30N 44°06' E 009°50'0 0.0
2017-Jul-17 15:00N 44°06' E 009°50'0 0.0
2017-Jul-17 14:30N 44°06' E 009°50'0 0.0
2017-Jul-17 14:00N 44°06' E 009°50'0 0.0
2017-Jul-17 13:30N 44°06' E 009°50'0 0.0
2017-Jul-17 13:00N 44°06' E 009°50'0 0.0
2017-Jul-17 12:30N 44°06' E 009°50'0 0.1
2017-Jul-17 12:00N 44°06' E 009°50'1 1.2
2017-Jul-17 11:30N 44°06' E 009°50'4 7.9
2017-Jul-17 11:00N 44°02' E 009°53'3 6.0
2017-Jul-17 10:30N 43°59' E 009°53'4 9.0
2017-Jul-17 10:00N 43°60' E 009°46'5 9.5
2017-Jul-17 09:30N 44°00' E 009°40'5 9.4
2017-Jul-17 09:00N 44°01' E 009°33'5 9.3
2017-Jul-17 08:30N 44°03' E 009°27'5 9.1
2017-Jul-17 08:00N 44°05' E 009°22'5 9.0
2017-Jul-17 07:30N 44°07' E 009°16'4 8.8
2017-Jul-17 07:00N 44°09' E 009°11'4 8.4
2017-Jul-17 06:30N 44°12' E 009°07'4 8.4
2017-Jul-17 06:00N 44°15' E 009°02'4 8.3
2017-Jul-17 05:30N 44°18' E 008°58'4 8.0
2017-Jul-17 05:00N 44°22' E 008°57'3 5.3
2017-Jul-17 04:31N 44°24' E 008°54'0 0.0
2017-Jul-17 04:00N 44°24' E 008°54'0 0.0
2017-Jul-17 03:30N 44°24' E 008°54'0 0.0
2017-Jul-17 03:00N 44°24' E 008°54'0 0.0
2017-Jul-17 02:30N 44°24' E 008°54'0 0.0
2017-Jul-17 02:00N 44°24' E 008°54'0 0.0
2017-Jul-17 01:30N 44°24' E 008°54'0 0.0
2017-Jul-17 01:00N 44°24' E 008°54'0 0.0
2017-Jul-17 00:31N 44°24' E 008°54'0 0.0
2017-Jul-17 00:01N 44°24' E 008°54'0 0.0
2017-Jul-16 23:31N 44°24' E 008°54'0 0.0
2017-Jul-16 23:01N 44°24' E 008°54'0 0.0
2017-Jul-16 22:30N 44°24' E 008°54'0 0.0
2017-Jul-16 22:01N 44°24' E 008°54'0 0.0
2017-Jul-16 21:30N 44°24' E 008°54'0 0.0
2017-Jul-16 21:00N 44°24' E 008°54'0 0.0
2017-Jul-16 20:31N 44°24' E 008°54'0 0.0
2017-Jul-16 20:00N 44°24' E 008°54'0 0.0
2017-Jul-16 19:31N 44°24' E 008°54'0 0.0
2017-Jul-16 19:00N 44°24' E 008°54'0 0.0
2017-Jul-16 18:30N 44°24' E 008°54'0 0.0
2017-Jul-16 18:01N 44°24' E 008°54'0 0.0
2017-Jul-16 17:31N 44°24' E 008°54'0 0.0
2017-Jul-16 17:00N 44°24' E 008°54'0 0.0
2017-Jul-16 16:31N 44°24' E 008°54'0 0.0
2017-Jul-16 16:01N 44°24' E 008°54'0 0.0
2017-Jul-16 15:31N 44°24' E 008°54'0 0.0
2017-Jul-16 15:01N 44°24' E 008°54'0 0.0
2017-Jul-16 14:30N 44°24' E 008°54'0 0.0
2017-Jul-16 14:00N 44°24' E 008°54'0 0.0
2017-Jul-16 13:30N 44°24' E 008°54'0 0.0
2017-Jul-16 13:00N 44°24' E 008°54'0 0.0
2017-Jul-16 12:30N 44°24' E 008°54'0 0.0
2017-Jul-16 12:00N 44°24' E 008°54'0 0.0
2017-Jul-16 11:31N 44°24' E 008°54'0 0.0
2017-Jul-16 11:00N 44°24' E 008°54'0 0.0
2017-Jul-16 10:30N 44°24' E 008°54'0 0.0
2017-Jul-16 10:00N 44°24' E 008°54'0 0.0
2017-Jul-16 09:30N 44°24' E 008°54'0 0.0
2017-Jul-16 09:01N 44°24' E 008°54'0 0.0
2017-Jul-16 08:31N 44°24' E 008°54'0 0.0
2017-Jul-16 08:00N 44°24' E 008°54'0 0.0
2017-Jul-16 07:31N 44°24' E 008°54'0 0.0
2017-Jul-16 07:01N 44°24' E 008°54'0 0.0
2017-Jul-16 06:30N 44°24' E 008°54'0 0.0
2017-Jul-16 06:00N 44°24' E 008°54'0 0.0
2017-Jul-16 05:31N 44°24' E 008°54'0 0.0
2017-Jul-16 05:00N 44°24' E 008°54'0 0.0
2017-Jul-16 04:31N 44°24' E 008°54'0 0.0
2017-Jul-16 04:00N 44°24' E 008°54'0 0.0
2017-Jul-16 03:30N 44°24' E 008°54'0 0.0
2017-Jul-16 03:01N 44°24' E 008°54'0 0.0
2017-Jul-16 02:30N 44°24' E 008°54'0 0.0
2017-Jul-16 02:00N 44°24' E 008°54'0 0.0
2017-Jul-16 01:30N 44°24' E 008°54'0 0.0
2017-Jul-16 01:01N 44°24' E 008°54'0 0.0
2017-Jul-16 00:30N 44°24' E 008°54'0 0.0
2017-Jul-16 00:00N 44°24' E 008°54'0 0.0
2017-Jul-15 23:31N 44°24' E 008°54'0 0.0
2017-Jul-15 23:00N 44°24' E 008°54'0 0.0
2017-Jul-15 22:30N 44°24' E 008°54'0 0.0
2017-Jul-15 22:01N 44°24' E 008°54'0 0.0
2017-Jul-15 21:30N 44°24' E 008°54'0 0.0
2017-Jul-15 21:00N 44°24' E 008°54'0 0.0
2017-Jul-15 20:31N 44°24' E 008°54'0 0.0
2017-Jul-15 20:00N 44°24' E 008°54'0 0.0
2017-Jul-15 19:30N 44°24' E 008°54'0 0.0
2017-Jul-15 19:00N 44°24' E 008°54'0 0.0
2017-Jul-15 18:30N 44°24' E 008°54'0 0.0
2017-Jul-15 18:01N 44°24' E 008°54'0 0.0
2017-Jul-15 17:31N 44°24' E 008°54'0 0.0
2017-Jul-15 17:00N 44°24' E 008°54'0 0.0
2017-Jul-15 16:31N 44°24' E 008°54'0 0.0
2017-Jul-15 16:01N 44°24' E 008°54'0 0.0
2017-Jul-15 15:31N 44°24' E 008°54'0 0.0
2017-Jul-15 15:00N 44°24' E 008°54'0 0.0
2017-Jul-15 14:00N 44°24' E 008°54'0 0.0
2017-Jul-15 13:30N 44°24' E 008°54'0 0.0
2017-Jul-15 13:00N 44°24' E 008°54'0 0.0
2017-Jul-15 12:30N 44°24' E 008°54'0 0.0
2017-Jul-15 12:00N 44°24' E 008°54'0 0.0
2017-Jul-15 11:30N 44°24' E 008°54'0 0.0
2017-Jul-15 11:00N 44°24' E 008°54'0 0.0
2017-Jul-15 10:31N 44°24' E 008°54'1 1.5
2017-Jul-15 10:01N 44°25' E 008°55'0 0.0
2017-Jul-15 09:31N 44°25' E 008°55'0 0.0
2017-Jul-15 09:00N 44°25' E 008°55'0 0.0
2017-Jul-15 08:31N 44°25' E 008°55'0 0.0
2017-Jul-15 08:00N 44°25' E 008°55'0 0.0
2017-Jul-15 07:31N 44°25' E 008°55'0 0.0
2017-Jul-15 07:00N 44°25' E 008°55'0 0.0
2017-Jul-15 06:30N 44°25' E 008°55'1 1.5
2017-Jul-15 06:00N 44°24' E 008°54'0 0.0
2017-Jul-15 05:30N 44°24' E 008°54'0 0.0
2017-Jul-15 05:00N 44°24' E 008°54'0 0.0
2017-Jul-15 04:30N 44°24' E 008°54'0 0.0
2017-Jul-15 04:00N 44°24' E 008°54'0 0.0
2017-Jul-15 03:30N 44°24' E 008°54'0 0.0
2017-Jul-15 03:00N 44°24' E 008°54'0 0.0
2017-Jul-15 02:30N 44°24' E 008°54'0 0.0
2017-Jul-15 02:00N 44°24' E 008°54'0 0.0
2017-Jul-15 01:30N 44°24' E 008°54'0 0.0
2017-Jul-15 01:00N 44°24' E 008°54'0 0.0
2017-Jul-15 00:30N 44°24' E 008°54'0 0.0
2017-Jul-15 00:00N 44°24' E 008°54'0 0.0
2017-Jul-14 23:30N 44°24' E 008°54'0 0.0
2017-Jul-14 23:00N 44°24' E 008°54'0 0.0
2017-Jul-14 22:30N 44°24' E 008°54'0 0.0
2017-Jul-14 22:00N 44°24' E 008°54'0 0.0
2017-Jul-14 21:30N 44°24' E 008°54'0 0.0
2017-Jul-14 21:00N 44°24' E 008°54'0 0.0
2017-Jul-14 20:30N 44°24' E 008°54'0 0.0
2017-Jul-14 20:00N 44°24' E 008°54'0 0.0
2017-Jul-14 19:30N 44°24' E 008°54'0 0.0
2017-Jul-14 19:00N 44°24' E 008°54'0 0.0
2017-Jul-14 18:30N 44°24' E 008°54'0 0.0
2017-Jul-14 18:00N 44°24' E 008°54'0 0.0
2017-Jul-14 17:30N 44°24' E 008°54'0 0.0
2017-Jul-14 17:00N 44°24' E 008°54'0 0.0
2017-Jul-14 16:30N 44°24' E 008°54'0 0.0
2017-Jul-14 16:00N 44°24' E 008°54'0 0.1
2017-Jul-14 15:30N 44°24' E 008°54'0 0.0
2017-Jul-14 15:00N 44°24' E 008°54'0 0.1
2017-Jul-14 14:30N 44°24' E 008°54'0 0.0
2017-Jul-14 14:00N 44°24' E 008°54'2 3.4
2017-Jul-14 13:30N 44°24' E 008°52'0 0.0
2017-Jul-14 13:00N 44°24' E 008°52'0 0.0
2017-Jul-14 12:30N 44°24' E 008°52'0 0.0
2017-Jul-14 12:00N 44°24' E 008°52'2 3.5
2017-Jul-14 11:30N 44°24' E 008°54'0 0.0
2017-Jul-14 11:00N 44°24' E 008°54'0 0.0
2017-Jul-14 10:30N 44°24' E 008°54'0 0.0
2017-Jul-14 10:00N 44°24' E 008°54'0 0.0
2017-Jul-14 09:30N 44°24' E 008°54'0 0.1
2017-Jul-14 09:00N 44°24' E 008°54'0 0.1
2017-Jul-14 08:30N 44°24' E 008°54'0 0.0
2017-Jul-14 08:00N 44°24' E 008°54'0 0.0
2017-Jul-14 07:30N 44°24' E 008°54'0 0.0
2017-Jul-14 07:00N 44°24' E 008°54'0 0.1
2017-Jul-14 06:30N 44°24' E 008°54'0 0.0
2017-Jul-14 06:00N 44°24' E 008°54'0 0.0
2017-Jul-14 05:30N 44°24' E 008°54'0 0.0
2017-Jul-14 05:00N 44°24' E 008°54'0 0.0
2017-Jul-14 04:30N 44°24' E 008°54'0 0.0
2017-Jul-14 04:00N 44°24' E 008°54'0 0.0
2017-Jul-14 03:30N 44°24' E 008°54'0 0.0
2017-Jul-14 03:00N 44°24' E 008°54'0 0.0
2017-Jul-14 02:30N 44°24' E 008°54'0 0.0
2017-Jul-14 02:00N 44°24' E 008°54'0 0.0
2017-Jul-14 01:30N 44°24' E 008°54'0 0.0
2017-Jul-14 01:00N 44°24' E 008°54'0 0.0
2017-Jul-14 00:30N 44°24' E 008°54'0 0.0
2017-Jul-14 00:00N 44°24' E 008°54'0 0.0
2017-Jul-13 23:30N 44°24' E 008°54'0 0.0
2017-Jul-13 23:00N 44°24' E 008°54'0 0.0
2017-Jul-13 22:30N 44°24' E 008°54'0 0.0
2017-Jul-13 22:00N 44°24' E 008°54'0 0.0
2017-Jul-13 21:30N 44°24' E 008°54'0 0.0
2017-Jul-13 21:00N 44°24' E 008°54'0 0.0
2017-Jul-13 20:30N 44°24' E 008°54'0 0.0
2017-Jul-13 20:00N 44°24' E 008°54'0 0.0
2017-Jul-13 19:30N 44°24' E 008°54'0 0.0
2017-Jul-13 19:00N 44°24' E 008°54'0 0.0
2017-Jul-13 18:30N 44°24' E 008°54'0 0.0
2017-Jul-13 18:00N 44°24' E 008°54'0 0.0
2017-Jul-13 17:30N 44°24' E 008°54'0 0.0
2017-Jul-13 17:00N 44°24' E 008°54'0 0.0
2017-Jul-13 16:30N 44°24' E 008°54'0 0.0
2017-Jul-13 16:00N 44°24' E 008°54'0 0.0
2017-Jul-13 15:30N 44°24' E 008°54'0 0.0
2017-Jul-13 15:00N 44°24' E 008°54'0 0.0
2017-Jul-13 14:30N 44°24' E 008°54'0 0.0
2017-Jul-13 14:00N 44°24' E 008°54'0 0.0
2017-Jul-13 13:30N 44°24' E 008°54'0 0.0
2017-Jul-13 13:01N 44°24' E 008°54'0 0.0
2017-Jul-13 12:30N 44°24' E 008°54'0 0.0
2017-Jul-13 12:01N 44°24' E 008°54'1 2.3
2017-Jul-13 11:30N 44°24' E 008°53'3 6.0
2017-Jul-13 11:01N 44°24' E 008°49'1 2.0
2017-Jul-13 10:31N 44°25' E 008°48'0 0.0
2017-Jul-13 10:00N 44°25' E 008°48'0 0.0
2017-Jul-13 09:30N 44°25' E 008°48'0 0.0
2017-Jul-13 09:01N 44°25' E 008°48'0 0.0
2017-Jul-13 08:31N 44°25' E 008°48'0 0.0
2017-Jul-13 08:00N 44°25' E 008°48'0 0.0
2017-Jul-13 07:29N 44°25' E 008°48'0 0.0
2017-Jul-13 07:00N 44°25' E 008°48'0 0.0
2017-Jul-13 06:30N 44°25' E 008°48'0 0.0
2017-Jul-13 06:00N 44°25' E 008°48'1 1.1
2017-Jul-13 05:30N 44°25' E 008°47'3 6.4
2017-Jul-13 05:01N 44°23' E 008°51'3 5.6
2017-Jul-13 04:30N 44°24' E 008°54'0 0.1
2017-Jul-13 04:00N 44°24' E 008°54'0 0.0
2017-Jul-13 03:30N 44°24' E 008°54'0 0.0
2017-Jul-13 03:00N 44°24' E 008°54'0 0.0
2017-Jul-13 02:30N 44°24' E 008°54'0 0.0
2017-Jul-13 02:00N 44°24' E 008°54'0 0.0
2017-Jul-13 01:30N 44°24' E 008°54'0 0.0
2017-Jul-13 01:00N 44°24' E 008°54'0 0.0
2017-Jul-13 00:30N 44°24' E 008°54'  
Track history (hours):
 
Tides and Currents Weather Stations Pressure Air Temp Water Temp Dewpoint Dewpoint Depression Visibility Wind Speed Wind Dir Waves Ship Positions

Punta Gialla

Last reported at 2017-Jul-23 00:30 UTC. Time now 2017-Jul-23 00:53 UTC.
Position N 44°24' E 008°54'.

Length 52 m; draft 2.3 m.

Type: Ship (hazmat cat D). MMSI: 247077500.

Date/timePositionNaut miles runAvg speedWind from/ knotsBaromVisibWave heightAir tempDewpointWater temp
2017-Jul-23 00:30N 44°24' E 008°54'0 0.0
2017-Jul-23 00:00N 44°24' E 008°54'0 0.0
2017-Jul-22 23:30N 44°24' E 008°54'0 0.0
2017-Jul-22 23:00N 44°24' E 008°54'0 0.0
2017-Jul-22 22:30N 44°24' E 008°54'0 0.0
2017-Jul-22 22:00N 44°24' E 008°54'0 0.0
2017-Jul-22 21:30N 44°24' E 008°54'0 0.0
2017-Jul-22 21:00N 44°24' E 008°54'0 0.0
2017-Jul-22 20:30N 44°24' E 008°54'0 0.0
2017-Jul-22 20:00N 44°24' E 008°54'0 0.0
2017-Jul-22 19:30N 44°24' E 008°54'0 0.0
2017-Jul-22 19:00N 44°24' E 008°54'0 0.0
2017-Jul-22 18:30N 44°24' E 008°54'0 0.0
2017-Jul-22 18:00N 44°24' E 008°54'0 0.0
2017-Jul-22 17:30N 44°24' E 008°54'0 0.0
2017-Jul-22 17:00N 44°24' E 008°54'0 0.0
2017-Jul-22 16:30N 44°24' E 008°54'0 0.0
2017-Jul-22 16:00N 44°24' E 008°54'0 0.0
2017-Jul-22 15:30N 44°24' E 008°54'0 0.0
2017-Jul-22 15:00N 44°24' E 008°54'0 0.0
2017-Jul-22 14:00N 44°24' E 008°54'1 1.1
2017-Jul-22 13:30N 44°24' E 008°55'1 1.0
2017-Jul-22 13:00N 44°24' E 008°55'0 0.0
2017-Jul-22 12:30N 44°24' E 008°55'0 0.0
2017-Jul-22 12:00N 44°24' E 008°55'0 0.0
2017-Jul-22 11:30N 44°24' E 008°55'0 0.0
2017-Jul-22 11:00N 44°24' E 008°55'0 0.5
2017-Jul-22 10:30N 44°24' E 008°55'0 1.0
2017-Jul-22 10:00N 44°24' E 008°54'0 0.0
2017-Jul-22 09:30N 44°24' E 008°54'0 0.0
2017-Jul-22 09:00N 44°24' E 008°54'0 0.2
2017-Jul-22 08:30N 44°24' E 008°54'0 0.0
2017-Jul-22 08:00N 44°24' E 008°54'0 0.0
2017-Jul-22 07:30N 44°24' E 008°54'0 0.0
2017-Jul-22 07:00N 44°24' E 008°54'0 0.0
2017-Jul-22 06:31N 44°24' E 008°54'0 0.0
2017-Jul-22 06:00N 44°24' E 008°54'0 0.0
2017-Jul-22 05:30N 44°24' E 008°54'0 0.0
2017-Jul-22 05:00N 44°24' E 008°54'0 0.0
2017-Jul-22 04:30N 44°24' E 008°54'0 0.0
2017-Jul-22 04:00N 44°24' E 008°54'0 0.0
2017-Jul-22 03:30N 44°24' E 008°54'0 0.0
2017-Jul-22 03:00N 44°24' E 008°54'0 0.0
2017-Jul-22 02:30N 44°24' E 008°54'0 0.0
2017-Jul-22 02:00N 44°24' E 008°54'0 0.0
2017-Jul-22 01:30N 44°24' E 008°54'0 0.0
2017-Jul-22 01:00N 44°24' E 008°54'0 0.0
2017-Jul-22 00:30N 44°24' E 008°54'0 0.0
2017-Jul-22 00:00N 44°24' E 008°54'0 0.0
2017-Jul-21 23:30N 44°24' E 008°54'0 0.0
2017-Jul-21 23:00N 44°24' E 008°54'0 0.0
2017-Jul-21 22:30N 44°24' E 008°54'0 0.0
2017-Jul-21 22:00N 44°24' E 008°54'0 0.0
2017-Jul-21 21:30N 44°24' E 008°54'1 2.0
2017-Jul-21 21:00N 44°24' E 008°53'3 5.2
2017-Jul-21 20:30N 44°23' E 008°50'2 3.9
2017-Jul-21 20:01N 44°25' E 008°50'0 0.3
2017-Jul-21 19:31N 44°25' E 008°50'0 0.1
2017-Jul-21 19:00N 44°25' E 008°50'0 0.0
2017-Jul-21 18:30N 44°25' E 008°50'0 0.0
2017-Jul-21 18:00N 44°25' E 008°50'0 0.0
2017-Jul-21 17:30N 44°25' E 008°50'0 0.0
2017-Jul-21 17:00N 44°25' E 008°50'0 0.0
2017-Jul-21 16:30N 44°25' E 008°50'2 3.8
2017-Jul-21 16:00N 44°24' E 008°48'3 5.8
2017-Jul-21 15:30N 44°24' E 008°53'2 3.8
2017-Jul-21 15:00N 44°24' E 008°55'0 0.2
2017-Jul-21 14:30N 44°24' E 008°55'0 0.0
2017-Jul-21 14:00N 44°24' E 008°55'0 0.0
2017-Jul-21 13:30N 44°24' E 008°55'0 0.0
2017-Jul-21 13:01N 44°24' E 008°55'0 0.1
2017-Jul-21 12:31N 44°24' E 008°55'0 0.9
2017-Jul-21 12:01N 44°24' E 008°54'0 0.0
2017-Jul-21 11:30N 44°24' E 008°54'0 0.0
2017-Jul-21 11:00N 44°24' E 008°54'0 0.0
2017-Jul-21 10:30N 44°24' E 008°54'0 0.0
2017-Jul-21 10:00N 44°24' E 008°54'0 0.0
2017-Jul-21 09:30N 44°24' E 008°54'0 0.0
2017-Jul-21 09:00N 44°24' E 008°54'0 0.3
2017-Jul-21 08:30N 44°24' E 008°54'0 0.0
2017-Jul-21 08:00N 44°24' E 008°54'0 0.0
2017-Jul-21 07:30N 44°24' E 008°54'0 0.0
2017-Jul-21 07:00N 44°24' E 008°54'0 0.0
2017-Jul-21 06:30N 44°24' E 008°54'0 0.0
2017-Jul-21 06:00N 44°24' E 008°54'0 0.0
2017-Jul-21 05:30N 44°24' E 008°54'0 0.0
2017-Jul-21 05:00N 44°24' E 008°54'0 0.0
2017-Jul-21 04:30N 44°24' E 008°54'0 0.0
2017-Jul-21 04:00N 44°24' E 008°54'0 0.0
2017-Jul-21 03:30N 44°24' E 008°54'0 0.0
2017-Jul-21 03:00N 44°24' E 008°54'0 0.0
2017-Jul-21 02:30N 44°24' E 008°54'0 0.0
2017-Jul-21 02:00N 44°24' E 008°54'0 0.0
2017-Jul-21 01:30N 44°24' E 008°54'0 0.0
2017-Jul-21 01:00N 44°24' E 008°54'0 0.0
2017-Jul-21 00:30N 44°24' E 008°54'0 0.0
2017-Jul-21 00:00N 44°24' E 008°54'0 0.0
2017-Jul-20 23:30N 44°24' E 008°54'0 0.0
2017-Jul-20 23:00N 44°24' E 008°54'0 0.0
2017-Jul-20 22:30N 44°24' E 008°54'0 0.0
2017-Jul-20 22:00N 44°24' E 008°54'0 0.0
2017-Jul-20 21:30N 44°24' E 008°54'0 0.0
2017-Jul-20 21:00N 44°24' E 008°54'0 0.0
2017-Jul-20 20:30N 44°24' E 008°54'0 0.0
2017-Jul-20 20:00N 44°24' E 008°54'0 0.0
2017-Jul-20 19:30N 44°24' E 008°54'0 0.0
2017-Jul-20 19:00N 44°24' E 008°54'0 0.0
2017-Jul-20 18:30N 44°24' E 008°54'0 0.0
2017-Jul-20 18:00N 44°24' E 008°54'0 0.0
2017-Jul-20 17:30N 44°24' E 008°54'0 0.0
2017-Jul-20 17:00N 44°24' E 008°54'0 0.0
2017-Jul-20 16:30N 44°24' E 008°54'0 0.0
2017-Jul-20 16:00N 44°24' E 008°54'0 0.0
2017-Jul-20 15:30N 44°24' E 008°54'0 0.4
2017-Jul-20 15:00N 44°24' E 008°54'0 0.2
2017-Jul-20 14:00N 44°24' E 008°54'0 0.0
2017-Jul-20 13:30N 44°24' E 008°54'0 0.0
2017-Jul-20 13:00N 44°24' E 008°54'0 0.0
2017-Jul-20 12:30N 44°24' E 008°54'0 0.8
2017-Jul-20 12:00N 44°24' E 008°54'0 0.0
2017-Jul-20 11:30N 44°24' E 008°54'0 0.0
2017-Jul-20 11:00N 44°24' E 008°54'0 0.0
2017-Jul-20 10:30N 44°24' E 008°54'1 1.2
2017-Jul-20 10:01N 44°24' E 008°55'0 0.9
2017-Jul-20 09:30N 44°24' E 008°55'0 0.0
2017-Jul-20 09:00N 44°24' E 008°55'0 0.0
2017-Jul-20 08:30N 44°24' E 008°55'0 0.0
2017-Jul-20 08:00N 44°24' E 008°55'0 0.0
2017-Jul-20 07:30N 44°24' E 008°55'0 0.0
2017-Jul-20 07:00N 44°24' E 008°55'1 1.0
2017-Jul-20 06:30N 44°24' E 008°55'0 0.0
2017-Jul-20 06:00N 44°24' E 008°55'0 0.0
2017-Jul-20 05:30N 44°24' E 008°55'0 0.0
2017-Jul-20 05:00N 44°24' E 008°55'0 0.0
2017-Jul-20 04:30N 44°24' E 008°55'0 0.0
2017-Jul-20 04:00N 44°24' E 008°55'0 0.0
2017-Jul-20 03:30N 44°24' E 008°55'0 0.0
2017-Jul-20 03:00N 44°24' E 008°55'0 0.0
2017-Jul-20 02:30N 44°24' E 008°55'0 0.0
2017-Jul-20 02:00N 44°24' E 008°55'0 0.0
2017-Jul-20 01:30N 44°24' E 008°55'0 0.0
2017-Jul-20 01:00N 44°24' E 008°55'0 0.0
2017-Jul-20 00:30N 44°24' E 008°55'0 0.0
2017-Jul-20 00:00N 44°24' E 008°55'0 0.0
2017-Jul-19 23:30N 44°24' E 008°55'0 0.0
2017-Jul-19 23:00N 44°24' E 008°55'0 0.0
2017-Jul-19 22:30N 44°24' E 008°55'0 0.0
2017-Jul-19 22:00N 44°24' E 008°55'0 0.0
2017-Jul-19 21:30N 44°24' E 008°55'0 0.0
2017-Jul-19 21:00N 44°24' E 008°55'0 0.0
2017-Jul-19 20:30N 44°24' E 008°55'0 0.0
2017-Jul-19 20:00N 44°24' E 008°55'0 0.0
2017-Jul-19 19:30N 44°24' E 008°55'0 0.0
2017-Jul-19 19:00N 44°24' E 008°55'0 0.0
2017-Jul-19 18:30N 44°24' E 008°55'0 0.0
2017-Jul-19 18:00N 44°24' E 008°55'0 0.0
2017-Jul-19 17:30N 44°24' E 008°55'0 0.0
2017-Jul-19 17:00N 44°24' E 008°55'0 0.0
2017-Jul-19 16:30N 44°24' E 008°55'0 0.0
2017-Jul-19 16:00N 44°24' E 008°55'0 0.0
2017-Jul-19 15:30N 44°24' E 008°55'0 0.0
2017-Jul-19 15:00N 44°24' E 008°55'0 0.1
2017-Jul-19 14:30N 44°24' E 008°55'0 1.0
2017-Jul-19 14:00N 44°24' E 008°54'0 0.0
2017-Jul-19 13:30N 44°24' E 008°54'0 0.0
2017-Jul-19 13:00N 44°24' E 008°54'0 0.0
2017-Jul-19 12:30N 44°24' E 008°54'0 0.0
2017-Jul-19 12:00N 44°24' E 008°54'0 0.0
2017-Jul-19 11:30N 44°24' E 008°54'1 1.4
2017-Jul-19 11:00N 44°24' E 008°55'0 0.0
2017-Jul-19 10:30N 44°24' E 008°55'0 0.0
2017-Jul-19 10:00N 44°24' E 008°55'0 0.0
2017-Jul-19 09:30N 44°24' E 008°55'0 0.0
2017-Jul-19 09:00N 44°24' E 008°55'0 0.0
2017-Jul-19 08:30N 44°24' E 008°55'0 0.6
2017-Jul-19 08:00N 44°24' E 008°55'0 0.0
2017-Jul-19 07:30N 44°24' E 008°55'0 0.0
2017-Jul-19 07:00N 44°24' E 008°55'0 0.0
2017-Jul-19 06:30N 44°24' E 008°55'0 0.0
2017-Jul-19 06:00N 44°24' E 008°55'0 0.0
2017-Jul-19 05:30N 44°24' E 008°55'0 0.0
2017-Jul-19 05:00N 44°24' E 008°55'0 0.0
2017-Jul-19 04:30N 44°24' E 008°55'0 0.0
2017-Jul-19 04:00N 44°24' E 008°55'0 0.0
2017-Jul-19 03:30N 44°24' E 008°55'0 0.0
2017-Jul-19 03:00N 44°24' E 008°55'0 0.0
2017-Jul-19 02:30N 44°24' E 008°55'0 0.0
2017-Jul-19 02:00N 44°24' E 008°55'0 0.0
2017-Jul-19 01:30N 44°24' E 008°55'0 0.0
2017-Jul-19 01:00N 44°24' E 008°55'0 0.0
2017-Jul-19 00:30N 44°24' E 008°55'0 0.0
2017-Jul-19 00:00N 44°24' E 008°55'0 0.0
2017-Jul-18 23:30N 44°24' E 008°55'0 0.0
2017-Jul-18 23:00N 44°24' E 008°55'0 0.0
2017-Jul-18 22:30N 44°24' E 008°55'0 0.0
2017-Jul-18 22:00N 44°24' E 008°55'0 0.0
2017-Jul-18 21:30N 44°24' E 008°55'0 0.0
2017-Jul-18 21:00N 44°24' E 008°55'0 0.0
2017-Jul-18 20:30N 44°24' E 008°55'0 0.0
2017-Jul-18 20:00N 44°24' E 008°55'0 0.0
2017-Jul-18 19:30N 44°24' E 008°55'0 0.0
2017-Jul-18 19:00N 44°24' E 008°55'0 0.0
2017-Jul-18 18:30N 44°24' E 008°55'0 0.0
2017-Jul-18 18:00N 44°24' E 008°55'0 0.0
2017-Jul-18 17:30N 44°24' E 008°55'1 1.2
2017-Jul-18 17:00N 44°25' E 008°55'0 0.0
2017-Jul-18 16:30N 44°25' E 008°55'0 0.0
2017-Jul-18 16:00N 44°25' E 008°55'0 0.0
2017-Jul-18 15:30N 44°25' E 008°55'1 1.4
2017-Jul-18 15:00N 44°24' E 008°55'1 0.5
2017-Jul-18 14:00N 44°24' E 008°54'0 0.0
2017-Jul-18 13:30N 44°24' E 008°54'0 0.0
2017-Jul-18 13:00N 44°24' E 008°54'1 1.0
2017-Jul-18 12:30N 44°25' E 008°55'0 0.0
2017-Jul-18 12:00N 44°25' E 008°55'0 0.0
2017-Jul-18 11:30N 44°25' E 008°55'0 0.0
2017-Jul-18 11:00N 44°25' E 008°55'0 0.0
2017-Jul-18 10:30N 44°25' E 008°55'0 0.0
2017-Jul-18 10:00N 44°25' E 008°55'0 0.9
2017-Jul-18 09:30N 44°24' E 008°55'1 1.0
2017-Jul-18 09:00N 44°24' E 008°54'0 0.0
2017-Jul-18 08:30N 44°24' E 008°54'0 0.0
2017-Jul-18 08:00N 44°24' E 008°54'0 0.0
2017-Jul-18 07:30N 44°24' E 008°54'0 0.0
2017-Jul-18 07:00N 44°24' E 008°54'0 0.0
2017-Jul-18 06:30N 44°24' E 008°54'0 0.0
2017-Jul-18 06:00N 44°24' E 008°54'0 0.0
2017-Jul-18 05:30N 44°24' E 008°54'0 0.0
2017-Jul-18 05:00N 44°24' E 008°54'0 0.0
2017-Jul-18 04:30N 44°24' E 008°54'0 0.0
2017-Jul-18 04:00N 44°24' E 008°54'0 0.0
2017-Jul-18 03:30N 44°24' E 008°54'0 0.0
2017-Jul-18 03:00N 44°24' E 008°54'0 0.0
2017-Jul-18 02:30N 44°24' E 008°54'0 0.0
2017-Jul-18 02:00N 44°24' E 008°54'0 0.0
2017-Jul-18 01:30N 44°24' E 008°54'0 0.0
2017-Jul-18 01:00N 44°24' E 008°54'0 0.0
2017-Jul-18 00:30N 44°24' E 008°54'0 0.0
2017-Jul-18 00:00N 44°24' E 008°54'0 0.0
2017-Jul-17 23:30N 44°24' E 008°54'4 7.1
2017-Jul-17 23:00N 44°22' E 008°58'5 9.1
2017-Jul-17 22:30N 44°18' E 009°01'5 9.1
2017-Jul-17 22:00N 44°14' E 009°05'4 8.6
2017-Jul-17 21:30N 44°11' E 009°09'4 8.8
2017-Jul-17 21:00N 44°09' E 009°15'4 8.7
2017-Jul-17 20:30N 44°07' E 009°20'4 8.6
2017-Jul-17 20:00N 44°05' E 009°25'4 8.5
2017-Jul-17 19:30N 44°04' E 009°31'4 8.3
2017-Jul-17 19:00N 44°02' E 009°36'4 8.1
2017-Jul-17 18:30N 44°00' E 009°41'4 7.9
2017-Jul-17 18:00N 43°60' E 009°47'4 7.7
2017-Jul-17 17:30N 44°01' E 009°52'4 8.8
2017-Jul-17 17:00N 44°05' E 009°51'2 3.5
2017-Jul-17 16:30N 44°06' E 009°50'0 0.0
2017-Jul-17 16:00N 44°06' E 009°50'0 0.0
2017-Jul-17 15:30N 44°06' E 009°50'0 0.0
2017-Jul-17 15:00N 44°06' E 009°50'0 0.0
2017-Jul-17 14:30N 44°06' E 009°50'0 0.0
2017-Jul-17 14:00N 44°06' E 009°50'0 0.0
2017-Jul-17 13:30N 44°06' E 009°50'0 0.0
2017-Jul-17 13:00N 44°06' E 009°50'0 0.0
2017-Jul-17 12:30N 44°06' E 009°50'0 0.1
2017-Jul-17 12:00N 44°06' E 009°50'1 1.2
2017-Jul-17 11:30N 44°06' E 009°50'4 7.9
2017-Jul-17 11:00N 44°02' E 009°53'3 6.0
2017-Jul-17 10:30N 43°59' E 009°53'4 9.0
2017-Jul-17 10:00N 43°60' E 009°46'5 9.5
2017-Jul-17 09:30N 44°00' E 009°40'5 9.4
2017-Jul-17 09:00N 44°01' E 009°33'5 9.3
2017-Jul-17 08:30N 44°03' E 009°27'5 9.1
2017-Jul-17 08:00N 44°05' E 009°22'5 9.0
2017-Jul-17 07:30N 44°07' E 009°16'4 8.8
2017-Jul-17 07:00N 44°09' E 009°11'4 8.4
2017-Jul-17 06:30N 44°12' E 009°07'4 8.4
2017-Jul-17 06:00N 44°15' E 009°02'4 8.3
2017-Jul-17 05:30N 44°18' E 008°58'4 8.0
2017-Jul-17 05:00N 44°22' E 008°57'3 5.3
2017-Jul-17 04:31N 44°24' E 008°54'0 0.0
2017-Jul-17 04:00N 44°24' E 008°54'0 0.0
2017-Jul-17 03:30N 44°24' E 008°54'0 0.0
2017-Jul-17 03:00N 44°24' E 008°54'0 0.0
2017-Jul-17 02:30N 44°24' E 008°54'0 0.0
2017-Jul-17 02:00N 44°24' E 008°54'0 0.0
2017-Jul-17 01:30N 44°24' E 008°54'0 0.0
2017-Jul-17 01:00N 44°24' E 008°54'0 0.0
2017-Jul-17 00:31N 44°24' E 008°54'0 0.0
2017-Jul-17 00:01N 44°24' E 008°54'0 0.0
2017-Jul-16 23:31N 44°24' E 008°54'0 0.0
2017-Jul-16 23:01N 44°24' E 008°54'0 0.0
2017-Jul-16 22:30N 44°24' E 008°54'0 0.0
2017-Jul-16 22:01N 44°24' E 008°54'0 0.0
2017-Jul-16 21:30N 44°24' E 008°54'0 0.0
2017-Jul-16 21:00N 44°24' E 008°54'0 0.0
2017-Jul-16 20:31N 44°24' E 008°54'0 0.0
2017-Jul-16 20:00N 44°24' E 008°54'0 0.0
2017-Jul-16 19:31N 44°24' E 008°54'0 0.0
2017-Jul-16 19:00N 44°24' E 008°54'0 0.0
2017-Jul-16 18:30N 44°24' E 008°54'0 0.0
2017-Jul-16 18:01N 44°24' E 008°54'0 0.0
2017-Jul-16 17:31N 44°24' E 008°54'0 0.0
2017-Jul-16 17:00N 44°24' E 008°54'0 0.0
2017-Jul-16 16:31N 44°24' E 008°54'0 0.0
2017-Jul-16 16:01N 44°24' E 008°54'0 0.0
2017-Jul-16 15:31N 44°24' E 008°54'0 0.0
2017-Jul-16 15:01N 44°24' E 008°54'0 0.0
2017-Jul-16 14:30N 44°24' E 008°54'0 0.0
2017-Jul-16 14:00N 44°24' E 008°54'0 0.0
2017-Jul-16 13:30N 44°24' E 008°54'0 0.0
2017-Jul-16 13:00N 44°24' E 008°54'0 0.0
2017-Jul-16 12:30N 44°24' E 008°54'0 0.0
2017-Jul-16 12:00N 44°24' E 008°54'0 0.0
2017-Jul-16 11:31N 44°24' E 008°54'0 0.0
2017-Jul-16 11:00N 44°24' E 008°54'0 0.0
2017-Jul-16 10:30N 44°24' E 008°54'0 0.0
2017-Jul-16 10:00N 44°24' E 008°54'0 0.0
2017-Jul-16 09:30N 44°24' E 008°54'0 0.0
2017-Jul-16 09:01N 44°24' E 008°54'0 0.0
2017-Jul-16 08:31N 44°24' E 008°54'0 0.0
2017-Jul-16 08:00N 44°24' E 008°54'0 0.0
2017-Jul-16 07:31N 44°24' E 008°54'0 0.0
2017-Jul-16 07:01N 44°24' E 008°54'0 0.0
2017-Jul-16 06:30N 44°24' E 008°54'0 0.0
2017-Jul-16 06:00N 44°24' E 008°54'0 0.0
2017-Jul-16 05:31N 44°24' E 008°54'0 0.0
2017-Jul-16 05:00N 44°24' E 008°54'0 0.0
2017-Jul-16 04:31N 44°24' E 008°54'0 0.0
2017-Jul-16 04:00N 44°24' E 008°54'0 0.0
2017-Jul-16 03:30N 44°24' E 008°54'0 0.0
2017-Jul-16 03:01N 44°24' E 008°54'0 0.0
2017-Jul-16 02:30N 44°24' E 008°54'0 0.0
2017-Jul-16 02:00N 44°24' E 008°54'0 0.0
2017-Jul-16 01:30N 44°24' E 008°54'0 0.0
2017-Jul-16 01:01N 44°24' E 008°54'0 0.0
2017-Jul-16 00:30N 44°24' E 008°54'0 0.0
2017-Jul-16 00:00N 44°24' E 008°54'0 0.0
2017-Jul-15 23:31N 44°24' E 008°54'0 0.0
2017-Jul-15 23:00N 44°24' E 008°54'0 0.0
2017-Jul-15 22:30N 44°24' E 008°54'0 0.0
2017-Jul-15 22:01N 44°24' E 008°54'0 0.0
2017-Jul-15 21:30N 44°24' E 008°54'0 0.0
2017-Jul-15 21:00N 44°24' E 008°54'0 0.0
2017-Jul-15 20:31N 44°24' E 008°54'0 0.0
2017-Jul-15 20:00N 44°24' E 008°54'0 0.0
2017-Jul-15 19:30N 44°24' E 008°54'0 0.0
2017-Jul-15 19:00N 44°24' E 008°54'0 0.0
2017-Jul-15 18:30N 44°24' E 008°54'0 0.0
2017-Jul-15 18:01N 44°24' E 008°54'0 0.0
2017-Jul-15 17:31N 44°24' E 008°54'0 0.0
2017-Jul-15 17:00N 44°24' E 008°54'0 0.0
2017-Jul-15 16:31N 44°24' E 008°54'0 0.0
2017-Jul-15 16:01N 44°24' E 008°54'0 0.0
2017-Jul-15 15:31N 44°24' E 008°54'0 0.0
2017-Jul-15 15:00N 44°24' E 008°54'0 0.0
2017-Jul-15 14:00N 44°24' E 008°54'0 0.0
2017-Jul-15 13:30N 44°24' E 008°54'0 0.0
2017-Jul-15 13:00N 44°24' E 008°54'0 0.0
2017-Jul-15 12:30N 44°24' E 008°54'0 0.0
2017-Jul-15 12:00N 44°24' E 008°54'0 0.0
2017-Jul-15 11:30N 44°24' E 008°54'0 0.0
2017-Jul-15 11:00N 44°24' E 008°54'0 0.0
2017-Jul-15 10:31N 44°24' E 008°54'1 1.5
2017-Jul-15 10:01N 44°25' E 008°55'0 0.0
2017-Jul-15 09:31N 44°25' E 008°55'0 0.0
2017-Jul-15 09:00N 44°25' E 008°55'0 0.0
2017-Jul-15 08:31N 44°25' E 008°55'0 0.0
2017-Jul-15 08:00N 44°25' E 008°55'0 0.0
2017-Jul-15 07:31N 44°25' E 008°55'0 0.0
2017-Jul-15 07:00N 44°25' E 008°55'0 0.0
2017-Jul-15 06:30N 44°25' E 008°55'1 1.5
2017-Jul-15 06:00N 44°24' E 008°54'0 0.0
2017-Jul-15 05:30N 44°24' E 008°54'0 0.0
2017-Jul-15 05:00N 44°24' E 008°54'0 0.0
2017-Jul-15 04:30N 44°24' E 008°54'0 0.0
2017-Jul-15 04:00N 44°24' E 008°54'0 0.0
2017-Jul-15 03:30N 44°24' E 008°54'0 0.0
2017-Jul-15 03:00N 44°24' E 008°54'0 0.0
2017-Jul-15 02:30N 44°24' E 008°54'0 0.0
2017-Jul-15 02:00N 44°24' E 008°54'0 0.0
2017-Jul-15 01:30N 44°24' E 008°54'0 0.0
2017-Jul-15 01:00N 44°24' E 008°54'0 0.0
2017-Jul-15 00:30N 44°24' E 008°54'0 0.0
2017-Jul-15 00:00N 44°24' E 008°54'0 0.0
2017-Jul-14 23:30N 44°24' E 008°54'0 0.0
2017-Jul-14 23:00N 44°24' E 008°54'0 0.0
2017-Jul-14 22:30N 44°24' E 008°54'0 0.0
2017-Jul-14 22:00N 44°24' E 008°54'0 0.0
2017-Jul-14 21:30N 44°24' E 008°54'0 0.0
2017-Jul-14 21:00N 44°24' E 008°54'0 0.0
2017-Jul-14 20:30N 44°24' E 008°54'0 0.0
2017-Jul-14 20:00N 44°24' E 008°54'0 0.0
2017-Jul-14 19:30N 44°24' E 008°54'0 0.0
2017-Jul-14 19:00N 44°24' E 008°54'0 0.0
2017-Jul-14 18:30N 44°24' E 008°54'0 0.0
2017-Jul-14 18:00N 44°24' E 008°54'0 0.0
2017-Jul-14 17:30N 44°24' E 008°54'0 0.0
2017-Jul-14 17:00N 44°24' E 008°54'0 0.0
2017-Jul-14 16:30N 44°24' E 008°54'0 0.0
2017-Jul-14 16:00N 44°24' E 008°54'0 0.1
2017-Jul-14 15:30N 44°24' E 008°54'0 0.0
2017-Jul-14 15:00N 44°24' E 008°54'0 0.1
2017-Jul-14 14:30N 44°24' E 008°54'0 0.0
2017-Jul-14 14:00N 44°24' E 008°54'2 3.4
2017-Jul-14 13:30N 44°24' E 008°52'0 0.0
2017-Jul-14 13:00N 44°24' E 008°52'0 0.0
2017-Jul-14 12:30N 44°24' E 008°52'0 0.0
2017-Jul-14 12:00N 44°24' E 008°52'2 3.5
2017-Jul-14 11:30N 44°24' E 008°54'0 0.0
2017-Jul-14 11:00N 44°24' E 008°54'0 0.0
2017-Jul-14 10:30N 44°24' E 008°54'0 0.0
2017-Jul-14 10:00N 44°24' E 008°54'0 0.0
2017-Jul-14 09:30N 44°24' E 008°54'0 0.1
2017-Jul-14 09:00N 44°24' E 008°54'0 0.1
2017-Jul-14 08:30N 44°24' E 008°54'0 0.0
2017-Jul-14 08:00N 44°24' E 008°54'0 0.0
2017-Jul-14 07:30N 44°24' E 008°54'0 0.0
2017-Jul-14 07:00N 44°24' E 008°54'0 0.1
2017-Jul-14 06:30N 44°24' E 008°54'0 0.0
2017-Jul-14 06:00N 44°24' E 008°54'0 0.0
2017-Jul-14 05:30N 44°24' E 008°54'0 0.0
2017-Jul-14 05:00N 44°24' E 008°54'0 0.0
2017-Jul-14 04:30N 44°24' E 008°54'0 0.0
2017-Jul-14 04:00N 44°24' E 008°54'0 0.0
2017-Jul-14 03:30N 44°24' E 008°54'0 0.0
2017-Jul-14 03:00N 44°24' E 008°54'0 0.0
2017-Jul-14 02:30N 44°24' E 008°54'0 0.0
2017-Jul-14 02:00N 44°24' E 008°54'0 0.0
2017-Jul-14 01:30N 44°24' E 008°54'0 0.0
2017-Jul-14 01:00N 44°24' E 008°54'0 0.0
2017-Jul-14 00:30N 44°24' E 008°54'0 0.0
2017-Jul-14 00:00N 44°24' E 008°54'0 0.0
2017-Jul-13 23:30N 44°24' E 008°54'0 0.0
2017-Jul-13 23:00N 44°24' E 008°54'0 0.0
2017-Jul-13 22:30N 44°24' E 008°54'0 0.0
2017-Jul-13 22:00N 44°24' E 008°54'0 0.0
2017-Jul-13 21:30N 44°24' E 008°54'0 0.0
2017-Jul-13 21:00N 44°24' E 008°54'0 0.0
2017-Jul-13 20:30N 44°24' E 008°54'0 0.0
2017-Jul-13 20:00N 44°24' E 008°54'0 0.0
2017-Jul-13 19:30N 44°24' E 008°54'0 0.0
2017-Jul-13 19:00N 44°24' E 008°54'0 0.0
2017-Jul-13 18:30N 44°24' E 008°54'0 0.0
2017-Jul-13 18:00N 44°24' E 008°54'0 0.0
2017-Jul-13 17:30N 44°24' E 008°54'0 0.0
2017-Jul-13 17:00N 44°24' E 008°54'0 0.0
2017-Jul-13 16:30N 44°24' E 008°54'0 0.0
2017-Jul-13 16:00N 44°24' E 008°54'0 0.0
2017-Jul-13 15:30N 44°24' E 008°54'0 0.0
2017-Jul-13 15:00N 44°24' E 008°54'0 0.0
2017-Jul-13 14:30N 44°24' E 008°54'0 0.0
2017-Jul-13 14:00N 44°24' E 008°54'0 0.0
2017-Jul-13 13:30N 44°24' E 008°54'0 0.0
2017-Jul-13 13:01N 44°24' E 008°54'0 0.0
2017-Jul-13 12:30N 44°24' E 008°54'0 0.0
2017-Jul-13 12:01N 44°24' E 008°54'1 2.3
2017-Jul-13 11:30N 44°24' E 008°53'3 6.0
2017-Jul-13 11:01N 44°24' E 008°49'1 2.0
2017-Jul-13 10:31N 44°25' E 008°48'0 0.0
2017-Jul-13 10:00N 44°25' E 008°48'0 0.0
2017-Jul-13 09:30N 44°25' E 008°48'0 0.0
2017-Jul-13 09:01N 44°25' E 008°48'0 0.0
2017-Jul-13 08:31N 44°25' E 008°48'0 0.0
2017-Jul-13 08:00N 44°25' E 008°48'0 0.0
2017-Jul-13 07:29N 44°25' E 008°48'0 0.0
2017-Jul-13 07:00N 44°25' E 008°48'0 0.0
2017-Jul-13 06:30N 44°25' E 008°48'0 0.0
2017-Jul-13 06:00N 44°25' E 008°48'1 1.1
2017-Jul-13 05:30N 44°25' E 008°47'3 6.4
2017-Jul-13 05:01N 44°23' E 008°51'3 5.6
2017-Jul-13 04:30N 44°24' E 008°54'0 0.1
2017-Jul-13 04:00N 44°24' E 008°54'0 0.0
2017-Jul-13 03:30N 44°24' E 008°54'0 0.0
2017-Jul-13 03:00N 44°24' E 008°54'0 0.0
2017-Jul-13 02:30N 44°24' E 008°54'0 0.0
2017-Jul-13 02:00N 44°24' E 008°54'0 0.0
2017-Jul-13 01:30N 44°24' E 008°54'0 0.0
2017-Jul-13 01:00N 44°24' E 008°54'0 0.0
2017-Jul-13 00:30N 44°24' E 008°54'  

Dump ship's entire track history